createdAt,value
2022-11-25T00:00:00.391Z,97
2022-11-25T00:05:00.388Z,97.3
2022-11-25T00:10:00.399Z,97.3
2022-11-25T00:15:00.402Z,97.3
2022-11-25T00:20:00.406Z,97.3
2022-11-25T00:25:00.413Z,97.3
2022-11-25T00:30:00.434Z,97.3
2022-11-25T00:35:00.420Z,97.3
2022-11-25T00:40:00.454Z,97.3
2022-11-25T00:45:00.438Z,97.4
2022-11-25T00:50:00.458Z,97
2022-11-25T00:55:00.453Z,96.7
2022-11-25T01:00:00.405Z,96.7
2022-11-25T01:05:00.249Z,97.4
2022-11-25T01:10:00.137Z,97.4
2022-11-25T01:15:00.094Z,97.4
2022-11-25T01:20:00.112Z,97.4
2022-11-25T01:25:00.113Z,97.4
2022-11-25T01:30:00.111Z,97.1
2022-11-25T01:35:00.138Z,97.4
2022-11-25T01:40:00.157Z,97.1
2022-11-25T01:45:00.129Z,97.4
2022-11-25T01:50:00.162Z,96.6
2022-11-25T01:55:00.147Z,97.1
2022-11-25T02:00:00.139Z,96.8
2022-11-25T02:05:00.155Z,96.8
2022-11-25T02:10:00.151Z,96.8
2022-11-25T02:15:00.166Z,96.5
2022-11-25T02:20:00.185Z,96.1
2022-11-25T02:25:00.178Z,96.8
2022-11-25T02:30:00.191Z,96.4
2022-11-25T02:35:00.191Z,96.8
2022-11-25T02:40:00.190Z,96.8
2022-11-25T02:45:00.192Z,96.4
2022-11-25T02:50:00.208Z,96.8
2022-11-25T02:55:00.198Z,96.8
2022-11-25T03:00:00.227Z,96.8
2022-11-25T03:05:01.356Z,96.5
2022-11-25T03:10:01.358Z,96.2
2022-11-25T03:15:01.400Z,96.2
2022-11-25T03:20:01.362Z,95.9
2022-11-25T03:25:01.372Z,95.9
2022-11-25T03:30:01.385Z,96.2
2022-11-25T03:35:01.376Z,96.2
2022-11-25T03:40:01.384Z,96.2
2022-11-25T03:45:01.392Z,96.5
2022-11-25T03:50:01.402Z,96.5
2022-11-25T03:55:01.394Z,96.8
2022-11-25T04:00:01.403Z,96.2
2022-11-25T04:05:01.412Z,96.2
2022-11-25T04:10:01.421Z,96.2
2022-11-25T04:15:01.417Z,95.9
2022-11-25T04:20:01.498Z,96.3
2022-11-25T04:25:01.435Z,96
2022-11-25T04:30:01.435Z,95.8
2022-11-25T04:35:01.436Z,96
2022-11-25T04:40:01.448Z,95.7
2022-11-25T04:45:22.107Z,95.7
2022-11-25T04:50:01.502Z,95.7
2022-11-25T04:55:01.519Z,95.7
2022-11-25T05:00:01.589Z,95.7
2022-11-25T05:05:01.877Z,96
2022-11-25T05:10:01.707Z,96.3
2022-11-25T05:15:01.859Z,96.1
2022-11-25T05:20:01.645Z,96.1
2022-11-25T05:25:01.789Z,96.4
2022-11-25T05:30:01.697Z,96.4
2022-11-25T05:35:01.923Z,96.1
2022-11-25T05:40:01.720Z,96.1
2022-11-25T05:45:01.753Z,95.8
2022-11-25T05:50:01.667Z,96.4
2022-11-25T05:55:01.651Z,96.4
2022-11-25T06:00:01.546Z,95.8
2022-11-25T06:05:01.678Z,95.6
2022-11-25T06:10:03.454Z,95.8
2022-11-25T06:15:01.679Z,95.3
2022-11-25T06:20:01.723Z,95.8
2022-11-25T06:25:03.818Z,95.8
2022-11-25T06:30:01.709Z,95.8
2022-11-25T06:35:01.713Z,95.8
2022-11-25T06:40:01.566Z,95.8
2022-11-25T06:45:01.568Z,95.5
2022-11-25T06:50:01.570Z,95.5
2022-11-25T06:55:01.577Z,95.8
2022-11-25T07:00:01.593Z,95.7
2022-11-25T07:05:00.150Z,95.7
2022-11-25T07:10:00.170Z,95.8
2022-11-25T07:15:00.169Z,95.5
2022-11-25T07:20:00.181Z,95.5
2022-11-25T07:25:00.184Z,95.8
2022-11-25T07:30:41.509Z,95.8
2022-11-25T07:35:00.195Z,95.9
2022-11-25T07:40:00.196Z,95.9
2022-11-25T07:45:00.201Z,95.6
2022-11-25T07:50:00.200Z,95.9
2022-11-25T07:55:00.205Z,96
2022-11-25T08:00:00.714Z,95.4
2022-11-25T08:05:00.803Z,95.4
2022-11-25T08:10:00.218Z,95.5
2022-11-25T08:15:00.226Z,95.5
2022-11-25T08:20:00.232Z,94.9
2022-11-25T08:25:00.237Z,94.3
2022-11-25T08:30:00.240Z,93.7
2022-11-25T08:35:00.243Z,93.7
2022-11-25T08:40:00.911Z,93.4
2022-11-25T08:45:00.268Z,92.8
2022-11-25T08:50:00.262Z,93.2
2022-11-25T08:55:00.288Z,92.6
2022-11-25T09:00:00.270Z,92.6
2022-11-25T09:05:00.291Z,92.6
2022-11-25T09:10:00.285Z,92.6
2022-11-25T09:15:00.886Z,92.6
2022-11-25T09:20:00.305Z,92.4
2022-11-25T09:25:00.353Z,92.1
2022-11-25T09:30:00.457Z,91.2
2022-11-25T09:35:00.440Z,90.9
2022-11-25T09:40:00.418Z,90.3
2022-11-25T09:45:00.451Z,89.7
2022-11-25T09:50:00.901Z,89.7
2022-11-25T09:55:01.226Z,89.4
2022-11-25T10:00:00.837Z,89.1
2022-11-25T10:05:00.328Z,87.8
2022-11-25T10:10:00.343Z,88.8
2022-11-25T10:15:00.343Z,87.5
2022-11-25T10:20:00.361Z,88.2
2022-11-25T10:25:00.368Z,87.9
2022-11-25T10:30:00.360Z,87.6
2022-11-25T10:35:00.362Z,86.7
2022-11-25T10:40:00.375Z,86.1
2022-11-25T10:45:00.982Z,85.5
2022-11-25T10:50:00.972Z,85.5
2022-11-25T10:55:00.391Z,86.1
2022-11-25T11:00:00.392Z,86.1
2022-11-25T11:05:00.424Z,85.5
2022-11-25T11:10:00.402Z,84.3
2022-11-25T11:15:00.419Z,85.5
2022-11-25T11:20:00.408Z,85.5
2022-11-25T11:25:00.444Z,85.2
2022-11-25T11:30:00.416Z,86.1
2022-11-25T11:35:00.425Z,85.8
2022-11-25T11:40:00.443Z,86.2
2022-11-25T11:45:00.428Z,83.7
2022-11-25T11:50:00.439Z,84.3
2022-11-25T11:55:00.444Z,84.3
2022-11-25T12:00:00.477Z,84
2022-11-25T12:05:00.462Z,83.7
2022-11-25T12:10:00.459Z,84.6
2022-11-25T12:15:00.461Z,84.9
2022-11-25T12:20:00.469Z,85.2
2022-11-25T12:25:00.471Z,85.3
2022-11-25T12:30:00.472Z,84.7
2022-11-25T12:35:00.491Z,83.7
2022-11-25T12:40:00.484Z,84.4
2022-11-25T12:45:00.491Z,83.7
2022-11-25T12:50:00.495Z,84
2022-11-25T12:55:00.501Z,84.3
2022-11-25T13:00:25.064Z,83.4
2022-11-25T13:05:13.092Z,83.7
2022-11-25T13:10:00.200Z,84.3
2022-11-25T13:15:00.783Z,84.9
2022-11-25T13:20:00.097Z,84.9
2022-11-25T13:25:00.111Z,85.2
2022-11-25T13:30:00.114Z,85.5
2022-11-25T13:35:00.116Z,85.8
2022-11-25T13:40:00.158Z,85.9
2022-11-25T13:45:00.129Z,86.2
2022-11-25T13:50:00.128Z,86.2
2022-11-25T13:55:00.147Z,85.8
2022-11-25T14:00:00.160Z,85.9
2022-11-25T14:05:00.168Z,85.9
2022-11-25T14:10:00.163Z,86.2
2022-11-25T14:15:00.157Z,86.8
2022-11-25T14:20:00.592Z,86.8
2022-11-25T14:25:00.168Z,86.8
2022-11-25T14:30:00.177Z,86.8
2022-11-25T14:35:00.176Z,86.8
2022-11-25T14:40:00.177Z,87.1
2022-11-25T14:45:00.199Z,86.8
2022-11-25T14:50:26.682Z,86.8
2022-11-25T14:55:00.368Z,87.4
2022-11-25T15:00:00.924Z,88
2022-11-25T15:05:00.361Z,88
2022-11-25T15:10:00.393Z,88
2022-11-25T15:15:00.934Z,88
2022-11-25T15:20:00.388Z,87.7
2022-11-25T15:25:00.373Z,87.3
2022-11-25T15:30:00.401Z,87.3
2022-11-25T15:35:00.465Z,87.3
2022-11-25T15:40:00.491Z,86.5
2022-11-25T15:45:05.281Z,87.1
2022-11-25T15:50:00.557Z,87.7
2022-11-25T15:55:00.445Z,87.7
2022-11-25T16:00:00.530Z,88.2
2022-11-25T16:05:03.421Z,87
2022-11-25T16:10:00.473Z,86.9
2022-11-25T16:15:00.478Z,88.4
2022-11-25T16:20:00.541Z,89.3
2022-11-25T16:25:02.633Z,88.6
2022-11-25T16:30:00.462Z,88.9
2022-11-25T16:35:00.458Z,89.5
2022-11-25T16:40:00.471Z,90.4
2022-11-25T16:45:00.513Z,90.7
2022-11-25T16:50:00.482Z,91
2022-11-25T16:55:00.478Z,90.9
2022-11-25T17:00:00.489Z,90.9
2022-11-25T17:05:00.496Z,90.9
2022-11-25T17:10:00.506Z,91.2
2022-11-25T17:15:00.826Z,91.5
2022-11-25T17:20:00.639Z,91.8
2022-11-25T17:25:00.672Z,92.1
2022-11-25T17:30:00.562Z,92.8
2022-11-25T17:35:00.358Z,92.8
2022-11-25T17:40:00.362Z,93.1
2022-11-25T17:45:00.381Z,93.4
2022-11-25T17:50:00.387Z,93.7
2022-11-25T17:55:00.389Z,93.4
2022-11-25T18:00:00.409Z,93.4
2022-11-25T18:05:00.392Z,94.1
2022-11-25T18:10:00.395Z,94.1
2022-11-25T18:15:00.413Z,94.7
2022-11-25T18:20:00.401Z,94.7
2022-11-25T18:25:03.131Z,94.7
2022-11-25T18:30:00.416Z,94.7
2022-11-25T18:35:00.436Z,95.3
2022-11-25T18:40:00.422Z,95.3
2022-11-25T18:45:00.440Z,95
2022-11-25T18:50:00.439Z,94.7
2022-11-25T18:55:00.437Z,94.7
2022-11-25T19:00:24.866Z,94.7
2022-11-25T19:05:00.303Z,94.7
2022-11-25T19:10:00.166Z,94.7
2022-11-25T19:15:00.107Z,94.7
2022-11-25T19:20:00.125Z,94.7
2022-11-25T19:25:00.109Z,94.7
2022-11-25T19:30:00.123Z,94.7
2022-11-25T19:35:00.141Z,94.7
2022-11-25T19:40:00.190Z,94.7
2022-11-25T19:45:00.151Z,95
2022-11-25T19:50:00.140Z,94.7
2022-11-25T19:55:00.145Z,94.8
2022-11-25T20:00:00.149Z,94.8
2022-11-25T20:05:00.155Z,94.7
2022-11-25T20:10:00.155Z,94.7
2022-11-25T20:15:00.163Z,94.7
2022-11-25T20:20:00.181Z,94.7
2022-11-25T20:25:00.176Z,94
2022-11-25T20:30:00.199Z,94
2022-11-25T20:35:00.187Z,94.6
2022-11-25T20:40:00.200Z,94.6
2022-11-25T20:45:00.192Z,94.6
2022-11-25T20:50:00.221Z,94.6
2022-11-25T20:55:00.219Z,94
2022-11-25T21:00:00.274Z,94.3
2022-11-25T21:05:00.209Z,94.2
2022-11-25T21:10:00.214Z,94.2
2022-11-25T21:15:00.226Z,94.2
2022-11-25T21:20:00.257Z,93.9
2022-11-25T21:25:00.243Z,93.8
2022-11-25T21:30:00.260Z,94.4
2022-11-25T21:35:00.247Z,95
2022-11-25T21:40:00.250Z,95
2022-11-25T21:45:00.375Z,95
2022-11-25T21:50:00.273Z,95.3
2022-11-25T21:55:00.317Z,95.3
2022-11-25T22:00:00.369Z,95.6
2022-11-25T22:05:00.389Z,95.6
2022-11-25T22:10:00.356Z,95.6
2022-11-25T22:15:00.403Z,95.6
2022-11-25T22:20:00.351Z,95.6
2022-11-25T22:25:00.297Z,95.6
2022-11-25T22:30:00.309Z,96.2
2022-11-25T22:35:00.319Z,96.2
2022-11-25T22:40:00.309Z,96.5
2022-11-25T22:45:00.310Z,96.5
2022-11-25T22:50:00.614Z,96.8
2022-11-25T22:55:00.562Z,96.8
2022-11-25T23:00:00.682Z,96.8
2022-11-25T23:05:00.538Z,96.5
2022-11-25T23:10:00.699Z,96.2
2022-11-25T23:15:00.509Z,96.2
2022-11-25T23:20:00.551Z,96.2
2022-11-25T23:25:00.352Z,95.9
2022-11-25T23:30:00.558Z,96.2
2022-11-25T23:35:00.607Z,96.2
2022-11-25T23:40:00.558Z,96.8
2022-11-25T23:45:00.555Z,96.2
2022-11-25T23:50:00.376Z,96.5
2022-11-25T23:55:00.393Z,96.9
